createdAt,value
2019-04-25T00:01:11.548Z,60.30
2019-04-25T00:03:42.556Z,60.20
2019-04-25T00:06:13.426Z,60.20
2019-04-25T00:08:43.062Z,60.20
2019-04-25T00:11:13.286Z,60.20
2019-04-25T00:13:43.229Z,60.20
2019-04-25T00:16:13.094Z,60.10
2019-04-25T00:18:42.985Z,60.10
2019-04-25T00:21:22.518Z,60.10
2019-04-25T00:23:56.341Z,60.20
2019-04-25T00:26:39.007Z,60.20
2019-04-25T00:29:07.900Z,60.10
2019-04-25T00:31:36.785Z,60.20
2019-04-25T00:34:06.284Z,60.30
2019-04-25T00:36:35.116Z,60.20
2019-04-25T00:39:05.929Z,60.10
2019-04-25T00:41:34.733Z,60.00
2019-04-25T00:44:03.922Z,60.00
2019-04-25T00:46:35.230Z,60.10
2019-04-25T00:49:04.146Z,60.10
2019-04-25T00:51:32.998Z,60.20
2019-04-25T00:54:02.394Z,60.10
2019-04-25T00:56:32.216Z,60.00
2019-04-25T00:59:26.318Z,60.00
2019-04-25T01:02:12.947Z,59.90
2019-04-25T01:04:43.026Z,60.00
2019-04-25T01:07:12.962Z,59.90
2019-04-25T01:09:42.365Z,59.90
2019-04-25T01:12:14.131Z,59.90
2019-04-25T01:14:42.945Z,59.90
2019-04-25T01:17:11.864Z,59.90
2019-04-25T01:19:40.662Z,59.80
2019-04-25T01:22:10.362Z,59.80
2019-04-25T01:24:39.242Z,60.00
2019-04-25T01:27:09.753Z,59.80
2019-04-25T01:29:38.629Z,59.90
2019-04-25T01:32:09.166Z,59.70
2019-04-25T01:34:44.395Z,59.80
2019-04-25T01:37:30.682Z,59.70
2019-04-25T01:40:10.836Z,59.70
2019-04-25T01:42:49.577Z,59.70
2019-04-25T01:45:21.711Z,59.60
2019-04-25T01:47:52.045Z,59.80
2019-04-25T01:50:23.273Z,59.70
2019-04-25T01:52:54.097Z,59.70
2019-04-25T01:55:23.465Z,59.50
2019-04-25T01:57:55.074Z,59.80
2019-04-25T02:00:33.754Z,59.70
2019-04-25T02:03:04.482Z,59.50
2019-04-25T02:05:33.812Z,59.70
2019-04-25T02:08:04.398Z,59.50
2019-04-25T02:10:34.404Z,59.50
2019-04-25T02:13:05.988Z,59.50
2019-04-25T02:15:34.970Z,59.40
2019-04-25T02:18:03.955Z,59.40
2019-04-25T02:20:33.954Z,59.50
2019-04-25T02:23:04.172Z,59.40
2019-04-25T02:25:33.467Z,59.40
2019-04-25T02:28:05.249Z,59.40
2019-04-25T02:30:35.293Z,59.60
2019-04-25T02:33:08.956Z,59.40
2019-04-25T02:35:34.936Z,59.20
2019-04-25T02:38:08.346Z,59.40
2019-04-25T02:40:34.971Z,59.40
2019-04-25T02:43:07.905Z,59.20
2019-04-25T02:46:07.601Z,59.10
2019-04-25T02:49:09.130Z,59.00
2019-04-25T02:51:40.287Z,59.40
2019-04-25T02:54:09.243Z,59.00
2019-04-25T02:56:39.077Z,59.00
2019-04-25T02:59:09.170Z,58.90
2019-04-25T03:01:38.784Z,59.80
2019-04-25T03:04:11.166Z,59.10
2019-04-25T03:06:38.200Z,59.00
2019-04-25T03:09:09.969Z,58.80
2019-04-25T03:11:38.994Z,58.80
2019-04-25T03:14:09.989Z,59.00
2019-04-25T03:16:59.189Z,58.70
2019-04-25T03:19:56.446Z,58.70
2019-04-25T03:22:27.833Z,58.70
2019-04-25T03:24:56.707Z,58.60
2019-04-25T03:27:25.602Z,58.50
2019-04-25T03:29:54.441Z,58.50
2019-04-25T03:32:27.942Z,58.40
2019-04-25T03:34:54.914Z,58.40
2019-04-25T03:37:24.118Z,58.40
2019-04-25T03:39:53.557Z,58.40
2019-04-25T03:42:24.062Z,58.40
2019-04-25T03:44:53.821Z,58.40
2019-04-25T03:47:23.567Z,58.30
2019-04-25T03:49:55.047Z,58.30
2019-04-25T03:52:23.908Z,58.30
2019-04-25T03:54:53.435Z,58.20
2019-04-25T03:57:23.259Z,58.20
2019-04-25T03:59:53.618Z,58.20
2019-04-25T04:02:23.488Z,58.20
2019-04-25T04:04:53.764Z,58.20
2019-04-25T04:07:23.777Z,58.00
2019-04-25T04:09:53.272Z,58.00
2019-04-25T04:12:24.260Z,58.00
2019-04-25T04:14:53.821Z,58.00
2019-04-25T04:17:43.709Z,57.90
2019-04-25T04:20:49.566Z,57.90
2019-04-25T04:23:24.313Z,57.80
2019-04-25T04:25:54.576Z,57.80
2019-04-25T04:28:23.947Z,57.80
2019-04-25T04:30:54.112Z,57.80
2019-04-25T04:33:31.874Z,57.80
2019-04-25T04:35:54.328Z,57.80
2019-04-25T04:38:24.094Z,57.80
2019-04-25T04:40:55.047Z,57.70
2019-04-25T04:43:24.335Z,57.60
2019-04-25T04:45:57.654Z,57.70
2019-04-25T04:48:26.543Z,57.60
2019-04-25T04:50:55.449Z,57.50
2019-04-25T04:53:29.429Z,57.60
2019-04-25T04:55:58.321Z,57.60
2019-04-25T04:58:27.125Z,57.40
2019-04-25T05:00:56.022Z,57.40
2019-04-25T05:03:34.317Z,57.90
2019-04-25T05:06:20.617Z,57.40
2019-04-25T05:08:54.740Z,57.20
2019-04-25T05:11:25.418Z,57.30
2019-04-25T05:13:54.353Z,57.30
2019-04-25T05:16:23.822Z,57.30
2019-04-25T05:18:55.115Z,57.30
2019-04-25T05:21:25.210Z,57.10
2019-04-25T05:23:54.422Z,57.10
2019-04-25T05:26:24.939Z,57.20
2019-04-25T05:28:54.946Z,57.20
2019-04-25T05:31:45.548Z,57.00
2019-04-25T05:34:16.589Z,57.00
2019-04-25T05:36:45.221Z,56.90
2019-04-25T05:39:16.321Z,57.00
2019-04-25T05:41:57.677Z,56.90
2019-04-25T05:44:27.467Z,56.90
2019-04-25T05:46:56.582Z,56.90
2019-04-25T05:49:26.362Z,56.90
2019-04-25T05:51:55.582Z,56.90
2019-04-25T05:54:24.833Z,56.80
2019-04-25T05:56:54.485Z,56.80
2019-04-25T05:59:25.694Z,56.80
2019-04-25T06:01:54.226Z,56.80
2019-04-25T06:04:24.610Z,56.80
2019-04-25T06:06:55.214Z,56.80
2019-04-25T06:09:54.534Z,56.70
2019-04-25T06:12:41.194Z,56.80
2019-04-25T06:15:10.088Z,56.70
2019-04-25T06:17:57.982Z,56.90
2019-04-25T06:20:30.529Z,56.70
2019-04-25T06:23:45.747Z,56.80
2019-04-25T06:26:22.457Z,56.80
2019-04-25T06:28:53.654Z,56.90
2019-04-25T06:31:16.323Z,56.80
2019-04-25T06:33:46.479Z,56.70
2019-04-25T06:36:15.785Z,56.60
2019-04-25T06:38:44.780Z,56.70
2019-04-25T06:41:13.654Z,56.60
2019-04-25T06:43:44.362Z,56.70
2019-04-25T06:46:31.742Z,56.60
2019-04-25T06:49:07.976Z,56.60
2019-04-25T06:51:50.625Z,56.60
2019-04-25T06:54:19.458Z,56.50
2019-04-25T06:56:48.366Z,56.50
2019-04-25T06:59:17.333Z,56.50
2019-04-25T07:01:46.222Z,56.50
2019-04-25T07:04:15.105Z,56.80
2019-04-25T07:06:45.428Z,56.60
2019-04-25T07:09:14.782Z,56.60
2019-04-25T07:11:44.259Z,56.60
2019-04-25T07:14:14.223Z,56.60
2019-04-25T07:16:45.638Z,56.60
2019-04-25T07:19:17.415Z,56.60
2019-04-25T07:21:45.149Z,56.90
2019-04-25T07:24:14.564Z,57.30
2019-04-25T07:27:03.867Z,56.80
2019-04-25T07:29:43.217Z,56.70
2019-04-25T07:32:18.358Z,56.90
2019-04-25T07:34:47.260Z,56.70
2019-04-25T07:37:16.045Z,56.60
2019-04-25T07:39:44.870Z,57.40
2019-04-25T07:42:17.332Z,56.70
2019-04-25T07:44:52.521Z,56.70
2019-04-25T07:47:16.704Z,56.70
2019-04-25T07:49:45.598Z,56.70
2019-04-25T07:52:14.696Z,56.80
2019-04-25T07:54:44.001Z,56.70
2019-04-25T07:57:13.584Z,56.70
2019-04-25T07:59:43.634Z,57.80
2019-04-25T08:02:13.368Z,56.70
2019-04-25T08:04:44.204Z,56.70
2019-04-25T08:07:33.949Z,57.10
2019-04-25T08:10:05.046Z,57.00
2019-04-25T08:12:34.690Z,56.70
2019-04-25T08:15:20.302Z,57.40
2019-04-25T08:17:57.826Z,57.80
2019-04-25T08:20:26.713Z,56.90
2019-04-25T08:22:58.474Z,58.00
2019-04-25T08:25:26.401Z,57.20
2019-04-25T08:27:55.278Z,56.90
2019-04-25T08:30:24.410Z,56.80
2019-04-25T08:32:55.311Z,56.80
2019-04-25T08:35:24.226Z,57.10
2019-04-25T08:37:53.782Z,57.80
2019-04-25T08:40:23.773Z,57.50
2019-04-25T08:42:53.770Z,57.10
2019-04-25T08:45:24.449Z,57.00
2019-04-25T08:47:53.942Z,58.00
2019-04-25T08:50:33.954Z,57.20
2019-04-25T08:53:01.721Z,58.10
2019-04-25T08:55:54.556Z,57.60
2019-04-25T08:58:45.499Z,58.20
2019-04-25T09:01:36.511Z,58.70
2019-04-25T09:04:13.690Z,57.30
2019-04-25T09:06:44.153Z,58.10
2019-04-25T09:09:13.646Z,58.30
2019-04-25T09:11:44.672Z,57.90
2019-04-25T09:14:13.758Z,57.70
2019-04-25T09:16:44.228Z,58.20
2019-04-25T09:19:14.259Z,57.20
2019-04-25T09:21:48.093Z,57.60
2019-04-25T09:24:14.321Z,57.50
2019-04-25T09:26:45.084Z,57.20
2019-04-25T09:29:17.589Z,57.30
2019-04-25T09:31:45.804Z,57.30
2019-04-25T09:34:14.982Z,57.20
2019-04-25T09:36:44.969Z,57.50
2019-04-25T09:39:51.146Z,58.40
2019-04-25T09:42:23.840Z,58.60
2019-04-25T09:45:06.000Z,58.40
2019-04-25T09:47:35.723Z,58.80
2019-04-25T09:50:07.869Z,58.60
2019-04-25T09:52:37.727Z,57.80
2019-04-25T09:55:28.420Z,57.60
2019-04-25T09:58:04.165Z,57.70
2019-04-25T10:00:38.167Z,57.40
2019-04-25T10:03:07.319Z,57.30
2019-04-25T10:05:37.006Z,58.10
2019-04-25T10:08:06.444Z,57.30
2019-04-25T10:10:35.307Z,57.50
2019-04-25T10:13:06.479Z,58.10
2019-04-25T10:16:06.620Z,58.50
2019-04-25T10:18:37.049Z,58.50
2019-04-25T10:21:09.167Z,57.70
2019-04-25T10:23:44.064Z,57.60
2019-04-25T10:26:13.442Z,57.80
2019-04-25T10:28:44.059Z,57.90
2019-04-25T10:31:13.633Z,57.90
2019-04-25T10:33:43.763Z,57.90
2019-04-25T10:36:14.558Z,57.70
2019-04-25T10:38:46.995Z,57.70
2019-04-25T10:41:14.540Z,57.80
2019-04-25T10:43:44.005Z,57.60
2019-04-25T10:46:14.115Z,57.60
2019-04-25T10:48:44.080Z,57.80
2019-04-25T10:51:13.887Z,57.60
2019-04-25T10:53:45.625Z,57.60
2019-04-25T10:56:14.315Z,57.70
2019-04-25T10:58:44.466Z,58.00
2019-04-25T11:01:15.285Z,57.90
2019-04-25T11:04:06.678Z,57.80
2019-04-25T11:06:35.716Z,57.90
2019-04-25T11:09:06.490Z,57.70
2019-04-25T11:11:35.321Z,57.80
2019-04-25T11:14:04.165Z,57.70
2019-04-25T11:16:35.483Z,57.80
2019-04-25T11:19:04.334Z,57.80
2019-04-25T11:21:33.397Z,58.10
2019-04-25T11:24:03.971Z,58.00
2019-04-25T11:26:34.547Z,58.10
2019-04-25T11:29:03.854Z,57.90
2019-04-25T11:31:40.966Z,58.10
2019-04-25T11:34:10.880Z,57.80
2019-04-25T11:36:40.092Z,57.80
2019-04-25T11:39:32.121Z,57.80
2019-04-25T11:42:07.506Z,57.80
2019-04-25T11:44:36.460Z,58.00
2019-04-25T11:47:07.193Z,57.80
2019-04-25T11:49:36.195Z,58.10
2019-04-25T11:52:05.442Z,57.80
2019-04-25T11:54:34.340Z,57.80
2019-04-25T11:57:03.531Z,57.90
2019-04-25T11:59:34.125Z,57.90
2019-04-25T12:02:05.159Z,57.80
2019-04-25T12:04:33.985Z,57.80
2019-04-25T12:07:04.199Z,57.80
2019-04-25T12:09:33.766Z,58.10
2019-04-25T12:12:03.565Z,57.90
2019-04-25T12:14:34.140Z,57.90
2019-04-25T12:17:03.889Z,57.80
2019-04-25T12:19:37.274Z,57.90
2019-04-25T12:22:04.058Z,57.80
2019-04-25T12:24:33.581Z,58.10
2019-04-25T12:27:04.317Z,57.80
2019-04-25T12:29:33.722Z,57.90
2019-04-25T12:32:22.099Z,57.80
2019-04-25T12:34:51.615Z,57.80
2019-04-25T12:37:20.778Z,57.80
2019-04-25T12:39:49.611Z,57.80
2019-04-25T12:42:18.413Z,57.80
2019-04-25T12:45:06.295Z,57.90
2019-04-25T12:47:38.889Z,57.90
2019-04-25T12:50:07.704Z,57.80
2019-04-25T12:52:36.526Z,57.80
2019-04-25T12:55:06.197Z,57.90
2019-04-25T12:57:35.069Z,58.00
2019-04-25T13:00:04.286Z,57.90
2019-04-25T13:02:34.594Z,57.90
2019-04-25T13:05:05.555Z,57.90
2019-04-25T13:07:34.740Z,57.90
2019-04-25T13:10:05.690Z,57.90
2019-04-25T13:12:34.694Z,57.90
2019-04-25T13:15:03.551Z,57.90
2019-04-25T13:17:33.745Z,57.90
2019-04-25T13:20:04.065Z,57.90
2019-04-25T13:22:34.800Z,58.00
2019-04-25T13:25:05.639Z,58.10
2019-04-25T13:27:39.963Z,57.90
2019-04-25T13:30:29.770Z,58.00
2019-04-25T13:33:09.085Z,57.90
2019-04-25T13:35:49.742Z,57.90
2019-04-25T13:38:18.547Z,57.90
2019-04-25T13:40:48.131Z,57.90
2019-04-25T13:43:17.028Z,58.00
2019-04-25T13:45:45.933Z,57.90
2019-04-25T13:48:14.805Z,57.90
2019-04-25T13:50:44.351Z,57.90
2019-04-25T13:53:13.598Z,57.90
2019-04-25T13:55:42.981Z,57.90
2019-04-25T13:58:14.241Z,57.90
2019-04-25T14:00:44.204Z,57.90
2019-04-25T14:03:13.198Z,57.90
2019-04-25T14:05:43.505Z,57.90
2019-04-25T14:08:13.150Z,57.90
2019-04-25T14:10:44.350Z,57.90
2019-04-25T14:13:14.091Z,57.90
2019-04-25T14:15:48.111Z,57.90
2019-04-25T14:18:32.155Z,58.00
2019-04-25T14:21:14.165Z,58.00
2019-04-25T14:23:44.230Z,57.90
2019-04-25T14:26:13.988Z,57.90
2019-04-25T14:28:44.278Z,57.90
2019-04-25T14:31:30.526Z,57.90
2019-04-25T14:33:46.706Z,57.90
2019-04-25T14:36:15.662Z,57.90
2019-04-25T14:38:44.493Z,57.90
2019-04-25T14:41:13.955Z,57.90
2019-04-25T14:43:42.943Z,57.80
2019-04-25T14:46:11.979Z,57.90
2019-04-25T14:48:40.816Z,57.90
2019-04-25T14:51:10.873Z,57.90
2019-04-25T14:53:40.225Z,57.90
2019-04-25T14:56:36.881Z,57.80
2019-04-25T14:59:06.943Z,57.80
2019-04-25T15:01:44.561Z,57.80
2019-04-25T15:04:06.555Z,57.90
2019-04-25T15:06:36.430Z,57.80
2019-04-25T15:09:07.677Z,57.80
2019-04-25T15:11:36.694Z,57.80
2019-04-25T15:14:05.602Z,57.80
2019-04-25T15:16:34.474Z,57.80
2019-04-25T15:19:03.283Z,57.90
2019-04-25T15:21:32.160Z,57.80
2019-04-25T15:24:01.059Z,57.80
2019-04-25T15:26:29.942Z,57.90
2019-04-25T15:28:58.766Z,57.80
2019-04-25T15:31:29.996Z,57.90
2019-04-25T15:33:59.361Z,57.80
2019-04-25T15:36:38.323Z,57.70
2019-04-25T15:39:29.753Z,57.80
2019-04-25T15:44:49.988Z,57.80
2019-04-25T15:47:23.209Z,57.70
2019-04-25T15:49:53.871Z,57.80
2019-04-25T15:52:23.321Z,57.80
2019-04-25T15:54:52.812Z,57.80
2019-04-25T15:57:23.550Z,57.80
2019-04-25T15:59:53.000Z,57.70
2019-04-25T16:02:22.611Z,57.80
2019-04-25T16:04:52.184Z,57.80
2019-04-25T16:07:21.696Z,57.70
2019-04-25T16:09:51.284Z,57.80
2019-04-25T16:12:20.765Z,57.90
2019-04-25T16:14:50.464Z,57.80
2019-04-25T16:17:20.083Z,57.70
2019-04-25T16:19:49.572Z,57.90
2019-04-25T16:22:19.087Z,57.70
2019-04-25T16:24:48.550Z,57.70
2019-04-25T16:27:18.294Z,57.70
2019-04-25T16:29:47.684Z,57.80
2019-04-25T16:32:21.171Z,57.80
2019-04-25T16:34:51.022Z,57.70
2019-04-25T16:37:20.516Z,57.70
2019-04-25T16:39:50.102Z,57.70
2019-04-25T16:42:19.405Z,57.70
2019-04-25T16:44:48.829Z,57.80
2019-04-25T16:47:20.383Z,57.70
2019-04-25T16:49:49.927Z,57.70
2019-04-25T16:52:19.409Z,57.70
2019-04-25T16:54:48.961Z,57.70
2019-04-25T16:57:21.417Z,57.70
2019-04-25T16:59:52.573Z,57.70
2019-04-25T17:02:32.414Z,57.70
2019-04-25T17:04:56.784Z,57.80
2019-04-25T17:07:26.268Z,57.70
2019-04-25T17:09:55.896Z,57.70
2019-04-25T17:12:31.215Z,57.80
2019-04-25T17:15:18.446Z,57.80
2019-04-25T17:18:02.075Z,57.80
2019-04-25T17:20:38.465Z,57.80
2019-04-25T17:23:08.098Z,57.80
2019-04-25T17:25:37.749Z,57.80
2019-04-25T17:28:08.275Z,57.70
2019-04-25T17:30:39.348Z,57.80
2019-04-25T17:33:33.809Z,57.80
2019-04-25T17:36:16.672Z,57.90
2019-04-25T17:38:49.365Z,57.80
2019-04-25T17:41:24.021Z,57.80
2019-04-25T17:43:53.971Z,57.80
2019-04-25T17:46:27.340Z,57.80
2019-04-25T17:48:56.994Z,57.80
2019-04-25T17:51:26.710Z,57.90
2019-04-25T17:53:56.769Z,57.80
2019-04-25T17:56:26.453Z,57.90
2019-04-25T17:58:56.198Z,57.80
2019-04-25T18:01:25.748Z,57.90
2019-04-25T18:03:55.155Z,57.90
2019-04-25T18:06:24.661Z,57.90
2019-04-25T18:08:54.198Z,57.90
2019-04-25T18:11:23.736Z,57.90
2019-04-25T18:13:53.306Z,57.90
2019-04-25T18:16:36.745Z,58.00
2019-04-25T18:19:15.939Z,58.00
2019-04-25T18:21:45.269Z,57.90
2019-04-25T18:24:36.607Z,58.00
2019-04-25T18:27:15.956Z,57.90
2019-04-25T18:29:46.314Z,58.00
2019-04-25T18:32:15.878Z,58.10
2019-04-25T18:34:55.114Z,58.00
2019-04-25T18:37:47.153Z,58.10
2019-04-25T18:40:31.956Z,58.10
2019-04-25T18:43:13.995Z,58.20
2019-04-25T18:45:46.537Z,58.20
2019-04-25T18:48:16.061Z,58.20
2019-04-25T18:50:45.830Z,58.20
2019-04-25T18:53:35.115Z,58.30
2019-04-25T18:56:22.217Z,58.30
2019-04-25T18:59:13.628Z,58.40
2019-04-25T19:02:11.364Z,58.40
2019-04-25T19:04:56.627Z,58.40
2019-04-25T19:07:27.580Z,58.40
2019-04-25T19:09:58.743Z,58.40
2019-04-25T19:12:28.296Z,58.40
2019-04-25T19:15:01.441Z,58.50
2019-04-25T19:17:36.294Z,58.40
2019-04-25T19:20:05.899Z,58.50
2019-04-25T19:22:37.327Z,58.50
2019-04-25T19:25:06.853Z,58.40
2019-04-25T19:27:36.339Z,58.40
2019-04-25T19:30:06.453Z,58.40
2019-04-25T19:32:36.352Z,58.40
2019-04-25T19:35:06.540Z,58.40
2019-04-25T19:37:36.341Z,58.40
2019-04-25T19:40:30.264Z,58.90
2019-04-25T19:43:02.917Z,58.50
2019-04-25T19:45:33.382Z,58.50
2019-04-25T19:48:06.043Z,58.50
2019-04-25T19:50:35.468Z,58.50
2019-04-25T19:53:05.051Z,58.50
2019-04-25T19:55:37.100Z,58.60
2019-04-25T19:58:11.999Z,58.50
2019-04-25T20:00:44.789Z,58.40
2019-04-25T20:03:21.662Z,58.40
2019-04-25T20:05:57.156Z,58.50
2019-04-25T20:08:56.547Z,58.40
2019-04-25T20:11:31.183Z,58.50
2019-04-25T20:14:00.720Z,58.40
2019-04-25T20:16:32.947Z,58.40
2019-04-25T20:19:04.144Z,58.40
2019-04-25T20:21:33.962Z,58.50
2019-04-25T20:24:05.151Z,58.50
2019-04-25T20:26:34.791Z,58.50
2019-04-25T20:29:04.442Z,58.50
2019-04-25T20:31:34.041Z,58.60
2019-04-25T20:34:06.139Z,58.50
2019-04-25T20:36:35.222Z,58.50
2019-04-25T20:39:05.870Z,58.60
2019-04-25T20:41:35.524Z,58.60
2019-04-25T20:44:08.249Z,58.60
2019-04-25T20:46:38.521Z,58.50
2019-04-25T20:49:08.500Z,58.50
2019-04-25T20:51:41.100Z,58.60
2019-04-25T20:54:13.257Z,58.60
2019-04-25T20:56:45.284Z,58.60
2019-04-25T20:59:16.567Z,58.60
2019-04-25T21:01:47.182Z,58.70
2019-04-25T21:04:36.167Z,58.70
2019-04-25T21:07:05.830Z,58.70
2019-04-25T21:09:35.422Z,58.80
2019-04-25T21:12:14.902Z,58.80
2019-04-25T21:15:10.343Z,58.80
2019-04-25T21:18:04.883Z,58.90
2019-04-25T21:20:36.731Z,58.90
2019-04-25T21:23:06.308Z,58.90
2019-04-25T21:25:35.917Z,59.00
2019-04-25T21:28:05.652Z,58.90
2019-04-25T21:30:35.222Z,59.00
2019-04-25T21:33:06.380Z,59.00
2019-04-25T21:35:37.295Z,59.10
2019-04-25T21:38:07.105Z,59.10
2019-04-25T21:40:47.116Z,59.10
2019-04-25T21:43:23.883Z,59.10
2019-04-25T21:45:56.756Z,59.10
2019-04-25T21:48:26.907Z,59.20
2019-04-25T21:50:57.071Z,59.10
2019-04-25T21:53:26.553Z,59.20
2019-04-25T21:55:56.884Z,59.20
2019-04-25T21:58:27.697Z,59.30
2019-04-25T22:01:05.842Z,59.20
2019-04-25T22:03:36.687Z,59.20
2019-04-25T22:06:06.890Z,59.30
2019-04-25T22:08:38.736Z,59.40
2019-04-25T22:11:09.089Z,59.30
2019-04-25T22:13:39.017Z,59.30
2019-04-25T22:16:08.911Z,59.30
2019-04-25T22:18:40.309Z,59.30
2019-04-25T22:21:10.588Z,59.30
2019-04-25T22:23:40.517Z,59.30
2019-04-25T22:26:10.448Z,59.30
2019-04-25T22:28:40.570Z,59.30
2019-04-25T22:31:19.210Z,59.40
2019-04-25T22:34:06.297Z,59.30
2019-04-25T22:36:36.739Z,59.40
2019-04-25T22:39:12.947Z,59.40
2019-04-25T22:41:50.079Z,59.40
2019-04-25T22:44:22.163Z,59.40
2019-04-25T22:46:52.102Z,59.40
2019-04-25T22:49:21.594Z,59.40
2019-04-25T22:51:51.755Z,59.40
2019-04-25T22:54:22.742Z,59.50
2019-04-25T22:56:52.817Z,59.40
2019-04-25T22:59:22.983Z,59.50
2019-04-25T23:02:24.136Z,59.50
2019-04-25T23:05:15.731Z,59.50
2019-04-25T23:07:44.693Z,59.60
2019-04-25T23:10:17.003Z,59.60
2019-04-25T23:12:46.832Z,59.50
2019-04-25T23:15:17.872Z,59.70
2019-04-25T23:17:47.699Z,59.70
2019-04-25T23:20:17.877Z,59.70
2019-04-25T23:22:47.376Z,59.60
2019-04-25T23:25:19.902Z,59.60
2019-04-25T23:28:23.564Z,59.60
2019-04-25T23:31:12.616Z,59.60
2019-04-25T23:33:42.431Z,59.60
2019-04-25T23:36:13.162Z,59.70
2019-04-25T23:38:42.900Z,59.70
2019-04-25T23:41:15.671Z,59.70
2019-04-25T23:43:45.493Z,59.70
2019-04-25T23:46:15.307Z,59.70
2019-04-25T23:48:49.789Z,59.70
2019-04-25T23:51:20.657Z,59.70
2019-04-25T23:53:54.173Z,59.70
2019-04-25T23:56:23.722Z,59.70
2019-04-25T23:58:54.378Z,59.70
